Time;durP1;ratioP1;P1;durP2;ratioP2;P2;SDS_P1;SDS_P2;PMS_P1;PMS_P2;Temp;Humidity;BMP_temperature;BMP_pressure;BME280_temperature;BME280_humidity;BME280_pressure;Samples;Min_cycle;Max_cycle;Signal;HPM_P1;HPM_P2
2023/09/16 00:01:26;;;;;;;14.23;11.52;;;13.10;99.90;;;;;;5025358;28;20148;-43
2023/09/16 00:03:51;;;;;;;13.05;11.85;;;13.10;99.90;;;;;;5027011;28;20460;-47
2023/09/16 00:06:17;;;;;;;12.75;11.55;;;13.00;99.90;;;;;;5046563;28;20041;-44
2023/09/16 00:08:43;;;;;;;14.52;12.90;;;13.00;99.90;;;;;;5008323;28;20049;-45
2023/09/16 00:11:10;;;;;;;14.55;12.95;;;13.00;99.90;;;;;;5002214;28;20128;-43
2023/09/16 00:13:36;;;;;;;12.73;11.52;;;12.90;99.90;;;;;;5024027;28;20045;-43
2023/09/16 00:16:02;;;;;;;13.27;11.95;;;12.90;99.90;;;;;;5007821;28;20436;-44
2023/09/16 00:18:28;;;;;;;13.88;12.38;;;12.90;99.90;;;;;;5032907;28;20045;-44
2023/09/16 00:20:53;;;;;;;12.77;11.55;;;12.90;99.90;;;;;;5042662;28;20037;-43
2023/09/16 00:23:19;;;;;;;17.73;12.38;;;12.90;99.90;;;;;;5007668;28;20041;-43
2023/09/16 00:25:47;;;;;;;15.15;12.27;;;12.90;99.90;;;;;;5007598;28;20057;-43
2023/09/16 00:28:13;;;;;;;15.98;12.05;;;12.90;99.90;;;;;;5024632;28;20073;-44
2023/09/16 00:30:44;;;;;;;14.48;13.02;;;12.90;99.90;;;;;;5024385;28;20465;-44
2023/09/16 00:33:09;;;;;;;13.85;12.07;;;12.90;99.90;;;;;;5042360;28;20048;-44
2023/09/16 00:35:35;;;;;;;11.60;10.50;;;12.90;99.90;;;;;;5041900;28;20052;-44
2023/09/16 00:38:01;;;;;;;13.60;12.25;;;12.90;99.90;;;;;;5024749;28;20397;-44
2023/09/16 00:40:26;;;;;;;14.60;12.48;;;12.90;99.90;;;;;;5024100;28;20173;-44
2023/09/16 00:42:52;;;;;;;13.00;11.77;;;12.80;99.90;;;;;;5041984;28;20045;-43
2023/09/16 00:45:18;;;;;;;13.48;12.07;;;12.80;99.90;;;;;;5042021;28;20037;-43
2023/09/16 00:47:43;;;;;;;14.13;12.90;;;12.80;99.90;;;;;;5013008;28;20045;-43
2023/09/16 00:50:12;;;;;;;12.77;11.57;;;12.80;99.90;;;;;;5040149;28;20047;-44
2023/09/16 00:52:43;;;;;;;14.40;13.05;;;12.80;99.90;;;;;;5023363;28;20056;-44
2023/09/16 00:55:09;;;;;;;14.02;12.70;;;12.80;99.90;;;;;;5041164;28;20046;-45
2023/09/16 00:57:36;;;;;;;14.80;13.30;;;12.80;99.90;;;;;;5023576;28;20387;-43
2023/09/16 01:00:07;;;;;;;13.15;11.93;;;12.80;99.90;;;;;;5041400;28;20049;-46
2023/09/16 01:02:34;;;;;;;12.98;11.52;;;12.70;99.90;;;;;;5022898;28;20617;-43
2023/09/16 01:05:04;;;;;;;13.48;12.18;;;12.80;99.90;;;;;;5041146;28;20043;-47
2023/09/16 01:07:31;;;;;;;12.88;11.65;;;12.70;99.90;;;;;;5041858;28;20048;-46
2023/09/16 01:09:56;;;;;;;13.43;12.23;;;12.70;99.90;;;;;;5006487;28;20515;-44
2023/09/16 01:12:22;;;;;;;14.48;12.52;;;12.70;99.90;;;;;;5040954;28;20053;-42
2023/09/16 01:14:48;;;;;;;15.50;13.13;;;12.70;99.90;;;;;;5040870;28;20519;-44
2023/09/16 01:17:21;;;;;;;14.20;12.77;;;12.70;99.90;;;;;;5023158;28;20546;-43
2023/09/16 01:20:06;;;;;;;16.15;14.50;;;12.70;99.90;;;;;;5041276;28;20047;-43
2023/09/16 01:22:33;;;;;;;14.15;11.55;;;12.60;99.90;;;;;;5040890;28;20107;-42
2023/09/16 01:25:03;;;;;;;14.82;12.25;;;12.60;99.90;;;;;;5040470;28;20041;-42
2023/09/16 01:27:29;;;;;;;11.75;10.63;;;12.70;99.90;;;;;;5022753;28;20156;-43
2023/09/16 01:29:54;;;;;;;10.90;9.80;;;12.60;99.90;;;;;;5022957;28;20045;-44
2023/09/16 01:32:27;;;;;;;13.23;11.85;;;12.60;99.90;;;;;;5022729;28;20080;-43
2023/09/16 01:34:54;;;;;;;11.30;10.30;;;12.60;99.90;;;;;;5040736;28;20052;-45
2023/09/16 01:37:23;;;;;;;8.90;8.10;;;12.50;99.90;;;;;;5040974;28;20118;-43
2023/09/16 01:39:57;;;;;;;12.15;9.73;;;12.50;99.90;;;;;;5040771;28;20051;-42
2023/09/16 01:42:26;;;;;;;11.38;10.18;;;12.40;99.90;;;;;;5040479;28;20566;-42
2023/09/16 01:44:56;;;;;;;9.60;8.60;;;12.40;99.90;;;;;;5040815;28;20045;-43
2023/09/16 01:47:21;;;;;;;10.30;9.27;;;12.40;99.90;;;;;;5039473;28;20114;-44
2023/09/16 01:49:47;;;;;;;10.23;9.18;;;12.40;99.90;;;;;;5041065;28;20049;-42
2023/09/16 01:52:16;;;;;;;14.95;12.98;;;12.30;99.90;;;;;;5038654;28;20411;-43
2023/09/16 01:54:42;;;;;;;13.23;11.73;;;12.40;99.90;;;;;;5022231;28;20123;-42
2023/09/16 01:57:07;;;;;;;15.38;13.65;;;12.30;99.90;;;;;;5022680;28;20049;-42
2023/09/16 01:59:33;;;;;;;14.07;12.75;;;12.30;99.90;;;;;;5006211;28;20041;-42
2023/09/16 02:01:59;;;;;;;15.85;14.35;;;12.40;99.90;;;;;;5023161;28;20396;-43
2023/09/16 02:04:24;;;;;;;17.80;16.20;;;12.40;99.90;;;;;;5042450;28;20165;-42
2023/09/16 02:06:50;;;;;;;16.08;14.48;;;12.40;99.90;;;;;;5041376;28;20052;-43
2023/09/16 02:09:16;;;;;;;16.55;15.00;;;12.50;99.90;;;;;;5022355;28;20270;-44
2023/09/16 02:11:42;;;;;;;16.63;15.02;;;12.50;99.90;;;;;;5041000;28;20057;-42
2023/09/16 02:14:12;;;;;;;15.63;14.13;;;12.50;99.90;;;;;;5040079;28;20037;-41
2023/09/16 02:16:38;;;;;;;16.33;14.65;;;12.50;99.90;;;;;;5041181;28;20045;-43
2023/09/16 02:19:03;;;;;;;15.48;13.77;;;12.40;99.90;;;;;;5040794;28;20098;-42
2023/09/16 02:21:29;;;;;;;14.10;12.70;;;12.40;99.90;;;;;;5022987;28;20049;-42
2023/09/16 02:23:55;;;;;;;12.48;11.32;;;12.30;99.90;;;;;;5043214;28;20300;-42
2023/09/16 02:26:20;;;;;;;13.32;12.13;;;12.30;99.90;;;;;;5044623;28;20044;-42
2023/09/16 02:28:46;;;;;;;11.77;10.65;;;12.30;99.90;;;;;;5044543;28;20558;-41
2023/09/16 02:31:12;;;;;;;12.55;9.63;;;12.20;99.90;;;;;;5026518;28;20049;-42
2023/09/16 02:33:37;;;;;;;11.85;8.00;;;12.10;99.90;;;;;;5026039;28;20059;-43
2023/09/16 02:36:05;;;;;;;9.02;8.18;;;12.10;99.90;;;;;;5026114;28;20106;-44
2023/09/16 02:38:31;;;;;;;10.45;9.55;;;12.10;99.90;;;;;;5026324;28;20055;-43
2023/09/16 02:40:56;;;;;;;9.15;8.35;;;12.00;99.90;;;;;;5026160;28;20045;-42
2023/09/16 02:43:22;;;;;;;8.90;8.10;;;11.90;99.90;;;;;;5026334;28;20132;-43
2023/09/16 02:45:47;;;;;;;10.32;9.32;;;12.00;99.90;;;;;;5025993;28;20052;-43
2023/09/16 02:48:17;;;;;;;11.38;9.85;;;11.90;99.90;;;;;;5026247;28;20044;-43
2023/09/16 02:50:46;;;;;;;8.32;7.53;;;11.90;99.90;;;;;;5044422;28;20484;-46
2023/09/16 02:53:12;;;;;;;12.23;10.65;;;11.90;99.90;;;;;;5043890;28;20254;-42
2023/09/16 02:55:37;;;;;;;10.13;8.77;;;11.90;99.90;;;;;;5025252;28;20049;-42
2023/09/16 02:58:04;;;;;;;9.68;8.88;;;11.80;99.90;;;;;;5026095;28;20183;-45
2023/09/16 03:00:30;;;;;;;12.57;10.80;;;11.90;99.90;;;;;;5044326;28;20127;-45
2023/09/16 03:02:56;;;;;;;17.80;16.23;;;11.90;99.90;;;;;;5043763;28;20582;-43
2023/09/16 03:05:22;;;;;;;18.13;16.33;;;11.90;99.90;;;;;;5049559;28;20063;-44
2023/09/16 03:07:48;;;;;;;16.15;14.75;;;12.00;99.90;;;;;;5009460;28;20425;-44
2023/09/16 03:10:14;;;;;;;14.68;13.40;;;12.00;99.90;;;;;;5043640;28;20064;-43
2023/09/16 03:12:40;;;;;;;16.73;14.95;;;12.00;99.90;;;;;;5025116;28;20053;-43
2023/09/16 03:15:06;;;;;;;20.05;18.08;;;12.00;99.90;;;;;;5008816;28;20041;-43
2023/09/16 03:17:32;;;;;;;16.80;15.13;;;12.00;99.90;;;;;;5025423;28;20059;-43
2023/09/16 03:19:57;;;;;;;20.70;18.52;;;11.90;99.90;;;;;;5009025;28;20041;-46
2023/09/16 03:22:23;;;;;;;19.92;17.92;;;12.00;99.90;;;;;;5043193;28;20439;-43
2023/09/16 03:24:49;;;;;;;16.50;15.00;;;11.90;99.90;;;;;;5025348;28;20051;-45
2023/09/16 03:27:15;;;;;;;19.70;17.05;;;11.90;99.90;;;;;;5025345;28;20044;-42
2023/09/16 03:29:41;;;;;;;18.35;16.58;;;11.90;99.90;;;;;;5025832;28;20463;-43
2023/09/16 03:32:06;;;;;;;16.80;15.20;;;11.90;99.90;;;;;;5043135;28;20189;-44
2023/09/16 03:34:32;;;;;;;16.48;14.88;;;11.90;99.90;;;;;;5042028;28;20344;-42
2023/09/16 03:36:59;;;;;;;11.80;10.70;;;11.80;99.90;;;;;;5008912;28;20498;-42
2023/09/16 03:39:24;;;;;;;13.10;11.93;;;11.80;99.90;;;;;;5043385;28;20033;-43
2023/09/16 03:41:50;;;;;;;12.00;10.75;;;11.70;99.90;;;;;;5024978;28;20550;-43
2023/09/16 03:44:15;;;;;;;7.68;6.97;;;11.70;99.90;;;;;;5042573;28;20056;-42
2023/09/16 03:46:41;;;;;;;15.95;13.45;;;11.70;99.90;;;;;;5022745;28;20106;-43
2023/09/16 03:49:07;;;;;;;10.95;9.85;;;11.70;99.90;;;;;;5032873;28;20110;-44
2023/09/16 03:51:37;;;;;;;15.98;14.48;;;11.60;99.90;;;;;;5025368;28;20761;-44
2023/09/16 03:54:04;;;;;;;16.30;14.80;;;11.60;99.90;;;;;;5024646;28;20569;-43
2023/09/16 03:56:30;;;;;;;15.30;13.75;;;11.60;99.90;;;;;;5042813;28;20519;-43
2023/09/16 03:58:55;;;;;;;10.13;9.27;;;11.60;99.90;;;;;;5042913;28;20041;-43
2023/09/16 04:01:21;;;;;;;7.60;6.38;;;11.60;99.90;;;;;;5024652;28;20119;-45
2023/09/16 04:03:47;;;;;;;10.73;8.25;;;11.50;99.90;;;;;;5036588;28;20359;-46
2023/09/16 04:06:13;;;;;;;14.88;13.48;;;11.50;99.90;;;;;;5029447;28;20381;-43
2023/09/16 04:08:39;;;;;;;14.77;13.38;;;11.50;99.90;;;;;;5025548;28;20508;-42
2023/09/16 04:11:06;;;;;;;13.18;12.02;;;11.50;99.90;;;;;;5042915;28;20360;-44
2023/09/16 04:13:31;;;;;;;10.82;9.82;;;11.50;99.90;;;;;;5042027;28;20144;-42
2023/09/16 04:15:57;;;;;;;8.27;7.47;;;11.50;99.90;;;;;;5024911;28;20143;-42
2023/09/16 04:18:23;;;;;;;14.85;13.45;;;11.50;99.90;;;;;;5042529;28;20481;-43
2023/09/16 04:20:50;;;;;;;10.70;9.60;;;11.40;99.90;;;;;;5024744;28;20053;-46
2023/09/16 04:23:16;;;;;;;8.50;7.63;;;11.40;99.90;;;;;;5024702;28;20056;-42
2023/09/16 04:25:42;;;;;;;5.72;5.18;;;11.40;99.90;;;;;;5024349;28;20045;-44
2023/09/16 04:28:09;;;;;;;7.07;5.93;;;11.30;99.90;;;;;;5042520;28;20044;-43
2023/09/16 04:30:45;;;;;;;7.05;5.70;;;11.20;99.90;;;;;;5042824;28;20045;-45
2023/09/16 04:33:11;;;;;;;8.20;7.40;;;11.20;99.90;;;;;;5032945;28;20041;-44
2023/09/16 04:35:45;;;;;;;7.72;6.75;;;11.20;99.90;;;;;;5023888;28;20043;-47
2023/09/16 04:38:12;;;;;;;7.60;6.90;;;11.20;99.90;;;;;;5042509;28;20120;-43
2023/09/16 04:40:40;;;;;;;9.05;7.40;;;11.20;99.90;;;;;;5042263;28;20411;-45
2023/09/16 04:43:06;;;;;;;8.32;7.53;;;11.10;99.90;;;;;;5041787;28;20152;-45
2023/09/16 04:45:32;;;;;;;5.70;5.10;;;11.10;99.90;;;;;;5041063;28;20040;-46
2023/09/16 04:47:58;;;;;;;7.32;6.72;;;11.10;99.90;;;;;;5041748;28;20107;-43
2023/09/16 04:50:25;;;;;;;7.35;6.68;;;11.10;99.90;;;;;;5042504;28;20048;-47
2023/09/16 04:52:50;;;;;;;6.90;6.20;;;11.00;99.90;;;;;;5041905;28;20103;-44
2023/09/16 04:55:16;;;;;;;6.53;5.60;;;11.00;99.90;;;;;;5041499;28;20585;-46
2023/09/16 04:57:42;;;;;;;6.05;5.53;;;11.00;99.90;;;;;;5042064;28;20412;-46
2023/09/16 05:00:08;;;;;;;7.50;6.80;;;10.90;99.90;;;;;;5023301;28;20379;-46
2023/09/16 05:02:34;;;;;;;6.03;5.53;;;10.90;99.90;;;;;;5007475;28;20108;-44
2023/09/16 05:05:00;;;;;;;9.32;5.53;;;10.90;99.90;;;;;;5030006;28;20428;-44
2023/09/16 05:07:27;;;;;;;6.15;5.55;;;10.90;99.90;;;;;;5023974;28;20045;-45
2023/09/16 05:09:53;;;;;;;5.88;5.28;;;10.90;99.90;;;;;;5041599;28;20092;-42
2023/09/16 05:12:19;;;;;;;5.32;4.93;;;10.80;99.90;;;;;;5035507;28;20156;-44
2023/09/16 05:14:46;;;;;;;5.30;4.80;;;10.90;99.90;;;;;;5041768;28;20395;-43
2023/09/16 05:17:12;;;;;;;6.03;4.72;;;10.90;99.90;;;;;;5041918;28;20552;-45
2023/09/16 05:19:37;;;;;;;5.05;4.50;;;10.90;99.90;;;;;;5024099;28;20041;-45
2023/09/16 05:22:04;;;;;;;6.53;5.93;;;10.90;99.90;;;;;;5041553;28;20400;-43
2023/09/16 05:24:32;;;;;;;7.60;6.50;;;10.90;99.90;;;;;;5023411;28;20103;-43
2023/09/16 05:26:59;;;;;;;6.97;6.28;;;11.00;99.90;;;;;;5041700;28;20065;-46
2023/09/16 05:29:25;;;;;;;9.27;7.18;;;11.00;99.90;;;;;;5028931;28;20454;-43
2023/09/16 05:31:51;;;;;;;8.82;8.00;;;11.00;99.90;;;;;;5022976;28;20053;-42
2023/09/16 05:34:17;;;;;;;64.15;10.30;;;11.10;99.90;;;;;;5041101;28;20098;-43
2023/09/16 05:36:42;;;;;;;90.05;10.55;;;11.10;99.90;;;;;;5007364;28;20627;-42
2023/09/16 05:39:08;;;;;;;126.82;11.00;;;11.00;99.90;;;;;;5042289;28;20141;-42
2023/09/16 05:41:35;;;;;;;112.38;11.80;;;11.10;99.90;;;;;;5041669;28;20098;-43
2023/09/16 05:44:01;;;;;;;67.40;10.57;;;11.10;99.90;;;;;;5040737;28;20496;-42
2023/09/16 05:46:27;;;;;;;9.00;8.15;;;11.10;99.90;;;;;;5041489;28;20041;-43
2023/09/16 05:49:06;;;;;;;9.10;8.20;;;11.20;99.90;;;;;;5020378;28;20041;-42
2023/09/16 05:51:32;;;;;;;30.85;9.13;;;11.40;99.90;;;;;;5040928;28;20595;-43
2023/09/16 05:53:58;;;;;;;20.05;8.60;;;11.40;99.90;;;;;;5040796;28;20041;-43
2023/09/16 05:56:23;;;;;;;29.73;8.30;;;11.50;99.90;;;;;;5023081;28;20056;-42
2023/09/16 05:58:49;;;;;;;10.68;7.55;;;11.60;99.90;;;;;;5043955;28;20060;-43
2023/09/16 06:01:15;;;;;;;25.20;9.93;;;11.80;99.90;;;;;;5044785;28;20637;-42
2023/09/16 06:03:40;;;;;;;13.27;11.98;;;12.00;99.90;;;;;;5026194;28;20048;-42
2023/09/16 06:06:06;;;;;;;14.82;13.55;;;12.40;99.90;;;;;;5027317;28;20048;-43
2023/09/16 06:08:32;;;;;;;15.10;13.70;;;12.80;99.90;;;;;;5045048;28;20045;-42
2023/09/16 06:10:57;;;;;;;14.90;13.60;;;12.90;99.90;;;;;;5021069;28;20053;-43
2023/09/16 06:13:23;;;;;;;14.43;13.15;;;13.30;99.90;;;;;;5026093;28;20044;-42
2023/09/16 06:15:49;;;;;;;13.80;12.50;;;14.00;99.90;;;;;;5044791;28;20044;-44
2023/09/16 06:18:15;;;;;;;12.32;11.25;;;15.00;99.90;;;;;;5044762;28;20167;-44
2023/09/16 06:20:41;;;;;;;11.40;10.50;;;15.90;99.90;;;;;;5026439;28;20315;-43
2023/09/16 06:23:07;;;;;;;12.38;11.18;;;16.70;99.90;;;;;;5044123;28;20125;-43
2023/09/16 06:25:33;;;;;;;11.80;10.90;;;17.50;99.90;;;;;;5044093;28;20049;-43
2023/09/16 06:27:59;;;;;;;12.05;11.05;;;18.30;99.90;;;;;;5044710;28;20041;-47
2023/09/16 06:30:25;;;;;;;13.00;11.80;;;19.00;99.90;;;;;;5044490;28;20115;-44
2023/09/16 06:32:57;;;;;;;13.88;12.60;;;19.30;99.90;;;;;;5026424;28;20032;-43
2023/09/16 06:35:23;;;;;;;12.32;11.23;;;19.80;99.90;;;;;;5026461;28;20151;-44
2023/09/16 06:37:49;;;;;;;13.48;11.18;;;20.30;99.90;;;;;;5026410;28;20044;-44
2023/09/16 06:40:16;;;;;;;12.38;11.07;;;20.90;99.90;;;;;;5044774;28;20480;-42
2023/09/16 06:42:42;;;;;;;12.35;11.27;;;21.40;99.90;;;;;;5044207;28;20051;-44
2023/09/16 06:45:14;;;;;;;10.77;9.88;;;21.60;99.90;;;;;;5044340;28;20047;-45
2023/09/16 06:47:39;;;;;;;10.55;9.65;;;21.60;99.90;;;;;;5016386;28;20481;-45
2023/09/16 06:50:06;;;;;;;11.30;10.30;;;21.70;99.90;;;;;;5026323;28;20041;-43
2023/09/16 06:52:32;;;;;;;10.52;9.57;;;21.40;99.90;;;;;;5043655;28;20044;-45
2023/09/16 06:54:57;;;;;;;11.02;9.95;;;20.90;99.90;;;;;;5026190;28;20044;-45
2023/09/16 06:57:23;;;;;;;11.32;10.27;;;20.60;99.90;;;;;;5044634;28;20343;-45
2023/09/16 06:59:49;;;;;;;10.98;10.07;;;20.40;99.90;;;;;;5044364;28;20041;-43
2023/09/16 07:02:16;;;;;;;11.35;10.38;;;20.30;99.90;;;;;;5026059;28;20059;-43
2023/09/16 07:04:42;;;;;;;10.88;9.88;;;20.00;99.90;;;;;;5043276;28;20044;-43
2023/09/16 07:07:11;;;;;;;11.77;10.77;;;20.00;99.90;;;;;;5043895;28;20041;-44
2023/09/16 07:09:37;;;;;;;13.38;12.13;;;20.00;99.90;;;;;;5025267;28;20057;-43
2023/09/16 07:12:05;;;;;;;12.60;11.50;;;19.90;99.90;;;;;;5043715;28;20680;-43
2023/09/16 07:14:31;;;;;;;11.75;10.82;;;19.90;99.90;;;;;;5025610;28;20496;-43
2023/09/16 07:16:56;;;;;;;12.57;11.45;;;20.00;99.90;;;;;;5019022;28;20041;-44
2023/09/16 07:19:22;;;;;;;13.23;12.05;;;19.90;99.90;;;;;;5041335;28;20550;-44
2023/09/16 07:21:47;;;;;;;12.10;11.07;;;20.00;99.90;;;;;;5043314;28;20049;-45
2023/09/16 07:24:13;;;;;;;13.93;12.70;;;20.00;99.90;;;;;;5008598;28;20034;-45
2023/09/16 07:26:39;;;;;;;14.23;12.90;;;20.10;99.90;;;;;;5026015;28;20049;-42
2023/09/16 07:29:05;;;;;;;13.80;12.65;;;19.70;99.90;;;;;;5043766;28;20037;-44
2023/09/16 07:31:30;;;;;;;13.60;12.48;;;19.60;99.90;;;;;;5025223;28;20186;-43
2023/09/16 07:33:56;;;;;;;13.18;12.00;;;19.50;99.90;;;;;;5043129;28;20045;-42
2023/09/16 07:36:21;;;;;;;13.68;12.52;;;19.60;99.90;;;;;;5043336;28;20044;-43
2023/09/16 07:38:47;;;;;;;14.35;12.93;;;19.60;99.90;;;;;;5043554;28;20665;-44
2023/09/16 07:41:13;;;;;;;13.38;12.15;;;19.60;99.90;;;;;;5043753;28;20063;-45
2023/09/16 07:43:38;;;;;;;14.70;13.40;;;19.70;99.90;;;;;;5024627;28;20084;-43
2023/09/16 07:46:04;;;;;;;13.93;12.73;;;19.70;99.90;;;;;;5043655;28;20072;-44
2023/09/16 07:48:31;;;;;;;12.90;11.82;;;19.80;99.90;;;;;;5030845;28;20040;-43
2023/09/16 07:50:56;;;;;;;13.52;12.23;;;19.80;99.90;;;;;;5025482;28;20424;-43
2023/09/16 07:53:22;;;;;;;14.48;13.05;;;19.90;99.90;;;;;;5024610;28;20036;-44
2023/09/16 07:55:47;;;;;;;14.15;12.75;;;19.70;99.90;;;;;;5025129;28;20452;-43
2023/09/16 07:58:13;;;;;;;14.80;12.98;;;19.70;99.90;;;;;;5043537;28;20053;-44
2023/09/16 08:00:38;;;;;;;13.70;12.38;;;19.90;99.90;;;;;;5008167;28;20036;-45
2023/09/16 08:03:04;;;;;;;13.82;12.38;;;19.90;99.90;;;;;;5041992;28;20069;-44
2023/09/16 08:05:30;;;;;;;12.88;11.57;;;20.10;99.90;;;;;;5025570;28;20165;-44
2023/09/16 08:07:55;;;;;;;13.18;12.07;;;20.30;99.90;;;;;;5042744;28;20048;-43
2023/09/16 08:10:21;;;;;;;14.30;12.90;;;20.40;99.90;;;;;;5024278;28;20057;-43
2023/09/16 08:12:47;;;;;;;14.07;12.93;;;20.50;99.90;;;;;;5042158;28;20041;-43
2023/09/16 08:15:12;;;;;;;14.07;12.68;;;20.60;99.90;;;;;;5007787;28;20041;-43
2023/09/16 08:17:38;;;;;;;14.82;13.48;;;20.70;99.90;;;;;;5023815;28;20805;-44
2023/09/16 08:20:08;;;;;;;13.55;12.38;;;20.60;99.90;;;;;;5041520;28;20499;-46
2023/09/16 08:22:34;;;;;;;15.18;13.68;;;20.50;99.90;;;;;;5041901;28;20049;-46
2023/09/16 08:24:59;;;;;;;14.40;13.13;;;20.60;99.90;;;;;;5022961;28;20047;-47
2023/09/16 08:27:28;;;;;;;14.20;12.73;;;20.70;99.90;;;;;;5041885;28;20103;-45
2023/09/16 08:29:54;;;;;;;13.40;12.13;;;20.80;99.90;;;;;;5042399;28;20040;-44
2023/09/16 08:32:22;;;;;;;15.20;13.75;;;20.90;99.90;;;;;;5023307;28;20547;-46
2023/09/16 08:34:50;;;;;;;15.07;13.85;;;20.90;99.90;;;;;;5043912;28;20071;-45
2023/09/16 08:37:16;;;;;;;14.32;12.85;;;20.90;99.90;;;;;;5023564;28;20582;-49
2023/09/16 08:39:42;;;;;;;13.65;12.45;;;21.00;99.90;;;;;;5041733;28;20509;-44
2023/09/16 08:42:17;;;;;;;14.07;12.70;;;21.10;99.90;;;;;;5006409;28;20040;-44
2023/09/16 08:44:51;;;;;;;13.55;12.30;;;21.20;99.90;;;;;;5010120;28;20045;-46
2023/09/16 08:47:27;;;;;;;15.25;13.95;;;21.30;99.90;;;;;;5039193;28;20056;-45
2023/09/16 08:49:56;;;;;;;14.52;13.13;;;21.40;99.90;;;;;;5038857;28;20037;-44
2023/09/16 08:52:26;;;;;;;13.63;12.30;;;21.50;99.90;;;;;;5023222;28;20040;-48
2023/09/16 08:54:54;;;;;;;13.38;12.13;;;21.50;99.90;;;;;;5041393;28;20037;-45
2023/09/16 08:57:20;;;;;;;14.35;12.80;;;21.60;99.90;;;;;;5023719;28;20067;-47
2023/09/16 08:59:47;;;;;;;14.50;13.10;;;21.70;99.90;;;;;;5023490;28;20041;-45
2023/09/16 09:02:14;;;;;;;13.35;11.57;;;21.80;99.90;;;;;;5041444;28;20052;-47
2023/09/16 09:04:42;;;;;;;14.30;12.00;;;21.90;99.90;;;;;;5019265;28;20051;-44
2023/09/16 09:07:08;;;;;;;13.40;11.88;;;22.00;99.90;;;;;;5023774;28;20056;-44
2023/09/16 09:09:34;;;;;;;12.18;10.50;;;22.00;99.90;;;;;;5023405;28;20099;-43
2023/09/16 09:12:00;;;;;;;11.30;10.10;;;22.10;99.90;;;;;;5022795;28;20060;-44
2023/09/16 09:14:26;;;;;;;10.77;9.75;;;22.20;99.90;;;;;;5041420;28;20039;-45
2023/09/16 09:16:55;;;;;;;10.82;9.73;;;22.20;99.90;;;;;;5041612;28;20546;-47
2023/09/16 09:19:21;;;;;;;9.95;8.98;;;22.20;99.90;;;;;;5041538;28;20472;-45
2023/09/16 09:21:47;;;;;;;10.27;9.35;;;22.20;99.90;;;;;;5023068;28;20191;-46
2023/09/16 09:24:13;;;;;;;10.07;9.07;;;22.30;99.90;;;;;;5040922;28;20071;-45
2023/09/16 09:26:39;;;;;;;10.73;9.18;;;22.40;99.90;;;;;;5041219;28;20484;-44
2023/09/16 09:29:09;;;;;;;10.48;9.48;;;22.40;99.90;;;;;;5041238;28;20128;-44
2023/09/16 09:31:36;;;;;;;10.38;8.38;;;22.60;99.90;;;;;;5040721;28;20056;-45
2023/09/16 09:34:01;;;;;;;10.45;8.68;;;22.60;99.90;;;;;;5022334;28;20087;-45
2023/09/16 09:36:30;;;;;;;10.80;9.05;;;22.70;99.90;;;;;;5023145;28;20040;-46
2023/09/16 09:38:57;;;;;;;7.50;6.72;;;22.80;99.90;;;;;;5006470;28;20033;-44
2023/09/16 09:41:23;;;;;;;8.88;7.88;;;22.80;99.90;;;;;;5040990;28;20539;-44
2023/09/16 09:43:52;;;;;;;9.10;7.88;;;22.90;99.90;;;;;;5006002;28;20373;-44
2023/09/16 09:46:18;;;;;;;7.45;6.60;;;23.00;99.90;;;;;;5041556;28;20477;-44
2023/09/16 09:48:44;;;;;;;7.07;6.28;;;23.00;99.90;;;;;;5027783;28;20047;-44
2023/09/16 09:51:09;;;;;;;8.25;6.55;;;23.00;99.90;;;;;;5024815;28;20084;-45
2023/09/16 09:53:36;;;;;;;9.30;6.97;;;23.00;99.90;;;;;;5045083;28;20087;-44
2023/09/16 09:56:02;;;;;;;7.60;6.20;;;23.10;99.90;;;;;;5006055;28;20041;-48
2023/09/16 09:58:29;;;;;;;6.75;6.07;;;22.90;99.90;;;;;;5040555;28;20045;-46
2023/09/16 10:00:55;;;;;;;6.85;6.15;;;23.10;99.90;;;;;;5040523;28;20423;-46
2023/09/16 10:03:22;;;;;;;6.25;5.65;;;23.10;99.90;;;;;;5040420;28;20140;-46
2023/09/16 10:05:49;;;;;;;7.20;6.10;;;23.20;99.90;;;;;;5030576;28;20443;-45
2023/09/16 10:08:14;;;;;;;8.20;6.50;;;23.30;99.90;;;;;;5040803;28;20083;-48
2023/09/16 10:10:40;;;;;;;7.78;5.53;;;23.30;99.90;;;;;;5039727;28;20139;-44
2023/09/16 10:13:07;;;;;;;6.95;5.63;;;23.40;99.90;;;;;;5039556;28;20117;-46
2023/09/16 10:15:36;;;;;;;7.38;6.57;;;23.40;99.90;;;;;;5022226;28;20437;-47
2023/09/16 10:18:03;;;;;;;9.30;5.95;;;23.40;99.90;;;;;;5039989;28;20041;-47
2023/09/16 10:20:32;;;;;;;8.18;7.20;;;23.30;99.90;;;;;;5040139;28;20052;-45
2023/09/16 10:22:59;;;;;;;7.32;5.40;;;23.20;99.90;;;;;;5039857;28;20124;-48
2023/09/16 10:25:28;;;;;;;8.32;5.97;;;23.40;99.90;;;;;;5040157;28;20317;-46
2023/09/16 10:28:00;;;;;;;12.57;6.82;;;23.40;99.90;;;;;;5022043;28;20045;-46
2023/09/16 10:30:27;;;;;;;6.70;5.40;;;23.40;99.90;;;;;;5037593;28;20033;-46
2023/09/16 10:32:53;;;;;;;7.07;5.75;;;23.60;99.90;;;;;;5022000;28;20049;-48
2023/09/16 10:35:20;;;;;;;7.57;5.50;;;23.70;99.90;;;;;;5040842;28;20499;-48
2023/09/16 10:37:47;;;;;;;8.73;6.00;;;23.60;99.80;;;;;;5006325;28;20045;-45
2023/09/16 10:40:16;;;;;;;7.70;6.35;;;23.60;99.70;;;;;;5022797;28;20049;-46
2023/09/16 10:42:44;;;;;;;8.88;5.30;;;23.70;99.70;;;;;;5048770;28;20096;-46
2023/09/16 10:45:12;;;;;;;6.85;5.65;;;23.80;99.90;;;;;;5013505;28;20288;-48
2023/09/16 10:47:39;;;;;;;6.13;5.40;;;23.70;99.10;;;;;;5050492;28;20048;-48
2023/09/16 10:50:05;;;;;;;6.60;4.70;;;23.90;99.90;;;;;;5053986;28;20048;-47
2023/09/16 10:53:07;;;;;;;6.05;5.18;;;24.00;99.50;;;;;;4998310;28;20063;-46
2023/09/16 10:55:56;;;;;;;6.20;5.60;;;24.00;99.50;;;;;;5029941;28;20061;-46
2023/09/16 10:58:41;;;;;;;5.13;4.60;;;24.00;98.40;;;;;;5025021;28;20060;-46
2023/09/16 11:01:16;;;;;;;6.47;5.40;;;24.00;99.30;;;;;;5024653;28;20060;-48
2023/09/16 11:03:49;;;;;;;6.47;4.50;;;24.00;99.40;;;;;;5043435;28;20475;-47
2023/09/16 11:06:15;;;;;;;7.07;5.22;;;24.10;99.40;;;;;;5029522;28;20044;-45
2023/09/16 11:08:41;;;;;;;6.10;4.90;;;24.10;99.10;;;;;;5023935;28;20053;-45
2023/09/16 11:11:08;;;;;;;5.93;4.30;;;24.10;98.50;;;;;;5041711;28;20114;-45
2023/09/16 11:13:33;;;;;;;7.93;4.38;;;24.20;98.20;;;;;;5023951;28;20049;-45
2023/09/16 11:15:59;;;;;;;5.38;4.00;;;24.20;98.30;;;;;;5007245;28;20068;-45
2023/09/16 11:18:25;;;;;;;7.60;4.40;;;24.20;97.70;;;;;;5024129;28;20349;-44
2023/09/16 11:20:51;;;;;;;4.90;4.03;;;24.30;98.20;;;;;;5023540;28;20495;-44
2023/09/16 11:23:17;;;;;;;5.60;3.25;;;24.20;97.60;;;;;;5041289;28;20075;-45
2023/09/16 11:25:43;;;;;;;4.00;3.00;;;24.20;96.60;;;;;;5041260;28;20049;-45
2023/09/16 11:28:13;;;;;;;5.88;3.60;;;24.20;95.50;;;;;;5042279;28;20116;-44
2023/09/16 11:30:45;;;;;;;5.68;2.78;;;24.20;96.00;;;;;;5007242;28;20041;-45
2023/09/16 11:33:33;;;;;;;5.00;3.20;;;24.20;96.40;;;;;;5041294;28;20245;-44
2023/09/16 11:36:16;;;;;;;5.75;3.97;;;24.20;95.70;;;;;;5029327;28;20068;-44
2023/09/16 11:38:54;;;;;;;5.70;3.67;;;24.20;94.80;;;;;;5042949;28;20044;-44
2023/09/16 11:41:19;;;;;;;4.93;4.30;;;24.30;95.60;;;;;;5042233;28;20575;-44
2023/09/16 11:43:45;;;;;;;5.90;4.20;;;24.40;95.80;;;;;;5042295;28;20379;-44
2023/09/16 11:46:12;;;;;;;5.05;3.60;;;24.50;96.40;;;;;;5024863;28;20033;-46
2023/09/16 11:49:03;;;;;;;7.65;3.70;;;24.50;95.70;;;;;;5041319;28;20048;-45
2023/09/16 11:51:29;;;;;;;4.32;3.40;;;24.50;94.40;;;;;;5042215;28;20049;-45
2023/09/16 11:53:55;;;;;;;3.95;3.55;;;24.50;95.40;;;;;;5042575;28;20044;-44
2023/09/16 11:56:30;;;;;;;6.45;4.35;;;24.60;95.50;;;;;;5041033;28;20427;-45
2023/09/16 11:58:58;;;;;;;6.07;3.47;;;24.70;95.30;;;;;;5042737;28;20055;-46
2023/09/16 12:01:29;;;;;;;5.70;3.58;;;24.80;95.40;;;;;;5024341;28;20049;-46
2023/09/16 12:03:59;;;;;;;6.40;3.97;;;24.90;95.20;;;;;;5025952;28;20041;-44
2023/09/16 12:06:26;;;;;;;6.20;4.20;;;24.80;94.30;;;;;;5027321;28;20048;-44
2023/09/16 12:08:57;;;;;;;5.97;3.45;;;24.90;94.10;;;;;;5042698;28;20405;-44
2023/09/16 12:11:24;;;;;;;5.30;3.53;;;24.90;94.10;;;;;;5017949;28;20041;-45
2023/09/16 12:13:50;;;;;;;4.00;3.58;;;24.80;94.40;;;;;;5041750;28;20088;-44
2023/09/16 12:16:15;;;;;;;4.28;3.08;;;24.90;94.70;;;;;;5022848;28;20726;-44
2023/09/16 12:18:43;;;;;;;5.40;3.42;;;25.00;94.60;;;;;;5012602;28;20092;-44
2023/09/16 12:21:09;;;;;;;4.85;3.97;;;25.10;94.80;;;;;;5042465;28;20057;-45
2023/09/16 12:23:34;;;;;;;4.65;4.10;;;25.10;94.10;;;;;;5042213;28;20041;-46
2023/09/16 12:26:00;;;;;;;5.80;3.53;;;25.20;94.90;;;;;;5023934;28;20380;-44
2023/09/16 12:28:27;;;;;;;5.00;3.45;;;25.30;94.70;;;;;;5024087;28;20132;-45
2023/09/16 12:30:57;;;;;;;5.82;3.95;;;25.30;93.90;;;;;;5024078;28;20049;-45
2023/09/16 12:33:36;;;;;;;3.95;3.40;;;25.40;93.70;;;;;;5041507;28;20146;-45
2023/09/16 12:36:03;;;;;;;5.78;3.75;;;25.40;93.80;;;;;;4996446;28;20389;-46